Time;durP1;ratioP1;P1;durP2;ratioP2;P2;SDS_P1;SDS_P2;PMS_P1;PMS_P2;Temp;Humidity;BMP_temperature;BMP_pressure;BME280_temperature;BME280_humidity;BME280_pressure;Samples;Min_cycle;Max_cycle;Signal;HPM_P1;HPM_P2
2022/03/08 00:03:52;;;;;;;12.03;5.50;;;0.60;71.70;;;-1.38;56.24;100617.59;10400820;28;96686;-77
2022/03/08 00:08:55;;;;;;;12.57;6.07;;;0.60;71.70;;;-1.39;56.70;100615.03;10389642;28;96611;-77
2022/03/08 00:13:58;;;;;;;13.83;5.53;;;0.60;71.80;;;-1.36;56.47;100615.72;10378550;27;96516;-77
2022/03/08 00:19:00;;;;;;;30.50;11.47;;;0.60;71.80;;;-1.31;56.58;100612.03;10425512;27;96532;-77
2022/03/08 00:24:05;;;;;;;24.07;9.47;;;0.60;71.80;;;-1.26;56.69;100615.22;10401065;27;96708;-77
2022/03/08 00:29:08;;;;;;;22.63;10.13;;;0.70;72.20;;;-1.26;57.29;100613.50;10420326;27;98762;-77
2022/03/08 00:34:11;;;;;;;19.03;8.00;;;0.70;72.30;;;-1.28;57.33;100612.72;10422407;27;96760;-77
2022/03/08 00:39:14;;;;;;;18.20;8.63;;;0.70;72.30;;;-1.27;57.44;100603.13;10443497;27;96561;-77
2022/03/08 00:44:17;;;;;;;26.63;10.33;;;0.70;72.50;;;-1.28;57.83;100602.28;10411732;27;96627;-77
2022/03/08 00:49:20;;;;;;;21.70;8.63;;;0.70;72.70;;;-1.25;58.29;100601.28;10414526;27;96663;-77
2022/03/08 00:54:23;;;;;;;17.47;7.77;;;0.70;73.30;;;-1.22;58.10;100595.88;10420878;27;96928;-77
2022/03/08 00:59:26;;;;;;;22.70;8.17;;;0.70;73.10;;;-1.25;58.72;100601.28;10409269;27;96663;-77
2022/03/08 01:04:29;;;;;;;38.87;12.70;;;0.70;73.80;;;-1.25;58.52;100601.28;10424276;27;96719;-77
2022/03/08 01:09:33;;;;;;;16.00;8.20;;;0.70;73.90;;;-1.24;58.60;100602.97;10442652;27;96583;-77
2022/03/08 01:14:36;;;;;;;17.23;8.17;;;0.70;73.80;;;-1.21;58.46;100597.56;10410417;27;96545;-77
2022/03/08 01:19:39;;;;;;;18.33;8.23;;;0.70;73.60;;;-1.18;58.55;100592.19;10440309;27;96733;-76
2022/03/08 01:24:42;;;;;;;16.70;8.00;;;0.70;74.00;;;-1.25;58.83;100606.50;10430226;27;96531;-76
2022/03/08 01:29:45;;;;;;;16.03;7.50;;;0.70;74.30;;;-1.41;58.88;100594.28;10415684;27;96722;-77
2022/03/08 01:34:47;;;;;;;12.13;6.13;;;0.60;73.70;;;-1.60;59.38;100590.97;10415922;27;96458;-77
2022/03/08 01:39:51;;;;;;;14.20;7.10;;;0.50;74.40;;;-1.86;60.04;100591.47;10426103;27;98400;-77
2022/03/08 01:44:55;;;;;;;14.47;6.47;;;0.30;75.10;;;-2.12;60.55;100591.03;10435328;27;96559;-76
2022/03/08 01:49:58;;;;;;;15.50;6.73;;;0.00;74.60;;;-2.33;62.02;100594.75;10416692;27;96556;-77
2022/03/08 01:55:01;;;;;;;18.70;8.60;;;-0.10;76.10;;;-2.47;62.38;100585.84;10400492;28;96632;-76
2022/03/08 02:00:12;;;;;;;14.57;7.17;;;-0.30;76.80;;;-2.63;63.03;100586.69;10421789;27;96706;-76
2022/03/08 02:05:16;;;;;;;15.50;6.77;;;-0.40;78.00;;;-2.81;63.16;100591.84;10435899;27;96553;-77
2022/03/08 02:10:18;;;;;;;12.03;5.23;;;-0.60;78.30;;;-3.01;63.87;100587.56;10453030;27;96484;-77
2022/03/08 02:15:26;;;;;;;11.60;5.23;;;-0.80;79.60;;;-3.16;64.48;100584.88;10435960;27;97047;-77
2022/03/08 02:20:30;;;;;;;18.67;6.47;;;-0.90;79.70;;;-3.28;65.21;100587.13;10439519;27;96453;-76
2022/03/08 02:25:34;;;;;;;10.30;4.53;;;-1.10;80.90;;;-3.34;65.36;100586.56;10444259;27;97169;-77
2022/03/08 02:30:36;;;;;;;14.47;5.47;;;-1.10;81.40;;;-3.34;65.43;100591.75;10435439;27;96497;-76
2022/03/08 02:35:39;;;;;;;10.33;5.50;;;-1.20;81.30;;;-3.37;66.02;100590.13;10408173;28;96621;-77
2022/03/08 02:40:43;;;;;;;9.90;5.27;;;-1.20;82.60;;;-3.45;66.55;100587.03;10396423;28;96615;-76
2022/03/08 02:45:46;;;;;;;13.90;6.20;;;-1.30;81.60;;;-3.55;66.70;100581.41;10411321;27;96587;-76
2022/03/08 02:50:49;;;;;;;13.93;6.13;;;-1.30;84.10;;;-3.61;67.50;100576.47;10420422;27;96549;-76
2022/03/08 02:55:52;;;;;;;12.37;4.90;;;-1.40;85.60;;;-3.61;67.48;100580.84;10443273;27;96615;-77
2022/03/08 03:00:56;;;;;;;9.83;4.53;;;-1.40;85.80;;;-3.61;67.52;100578.25;10442335;27;98450;-77
2022/03/08 03:05:59;;;;;;;11.20;5.40;;;-1.40;87.50;;;-3.69;67.86;100583.78;10439679;27;96528;-76
2022/03/08 03:11:02;;;;;;;10.43;4.67;;;-1.50;88.10;;;-3.75;68.24;100576.25;10403440;28;96434;-77
2022/03/08 03:16:05;;;;;;;15.63;5.97;;;-1.60;86.60;;;-3.70;69.13;100582.09;10427961;27;96601;-77
2022/03/08 03:21:08;;;;;;;10.97;5.90;;;-1.60;87.00;;;-3.69;69.05;100575.16;10405790;27;96572;-76
2022/03/08 03:26:11;;;;;;;13.37;6.63;;;-1.60;91.20;;;-3.65;69.41;100584.50;10405315;27;96629;-76
2022/03/08 03:31:14;;;;;;;13.13;5.87;;;-1.60;90.00;;;-3.70;69.40;100582.09;10430463;27;96543;-77
2022/03/08 03:36:17;;;;;;;12.20;5.40;;;-1.60;90.60;;;-3.55;69.02;100590.94;10443632;27;97972;-77
2022/03/08 03:41:20;;;;;;;11.77;6.07;;;-1.50;91.00;;;-3.53;68.99;100592.59;10418943;27;96661;-77
2022/03/08 03:46:23;;;;;;;24.67;9.27;;;-1.50;90.00;;;-3.53;68.91;100590.00;10432580;27;97239;-77
2022/03/08 03:51:26;;;;;;;19.07;8.53;;;-1.50;90.80;;;-3.59;69.21;100589.44;10419109;27;96747;-77
2022/03/08 03:56:29;;;;;;;20.53;8.17;;;-1.50;92.10;;;-3.66;69.03;100608.75;10430964;27;96604;-77
2022/03/08 04:01:32;;;;;;;24.23;10.13;;;-1.60;91.30;;;-3.79;69.15;100601.50;10419918;27;96579;-77
2022/03/08 04:06:35;;;;;;;24.37;10.53;;;-1.60;91.80;;;-3.92;69.33;100599.53;10432774;27;98569;-77
2022/03/08 04:11:39;;;;;;;22.10;10.07;;;-1.70;91.30;;;-4.05;69.98;100618.22;10423852;27;96509;-77
2022/03/08 04:16:42;;;;;;;23.90;10.47;;;-1.80;90.70;;;-4.19;70.14;100615.38;10445103;27;96667;-77
2022/03/08 04:21:45;;;;;;;22.30;8.90;;;-1.90;91.00;;;-4.36;70.14;100625.59;10444020;27;96579;-78
2022/03/08 04:26:48;;;;;;;23.73;10.20;;;-2.00;91.30;;;-4.49;70.75;100621.84;10464296;27;97269;-77
2022/03/08 04:31:51;;;;;;;25.27;10.53;;;-2.20;93.00;;;-4.63;71.34;100619.78;10438711;27;97282;-76
2022/03/08 04:36:54;;;;;;;26.93;10.83;;;-2.30;93.60;;;-4.72;72.42;100614.97;10408125;27;96646;-77
2022/03/08 04:41:57;;;;;;;38.13;15.47;;;-2.40;94.40;;;-4.77;73.07;100609.97;10423327;27;96568;-78
2022/03/08 04:47:00;;;;;;;31.83;11.93;;;-2.50;95.20;;;-4.76;73.84;100606.44;10437703;27;96583;-77
2022/03/08 04:52:03;;;;;;;30.03;12.70;;;-2.50;97.60;;;-4.74;74.40;100604.63;10434641;27;96614;-77
2022/03/08 04:57:06;;;;;;;36.70;13.73;;;-2.60;95.90;;;-4.78;74.42;100600.50;10429239;27;96977;-77
2022/03/08 05:02:10;;;;;;;41.73;14.40;;;-2.60;96.40;;;-4.83;74.86;100605.00;10429088;27;96385;-78
2022/03/08 05:07:13;;;;;;;40.57;12.40;;;-2.60;98.00;;;-4.91;74.65;100596.72;10404670;27;96526;-78
2022/03/08 05:12:16;;;;;;;40.03;13.17;;;-2.60;97.30;;;-4.99;74.52;100590.97;10416097;27;96435;-77
2022/03/08 05:17:19;;;;;;;44.17;14.53;;;-2.70;96.20;;;-4.99;75.00;100611.69;10401666;27;96710;-78
2022/03/08 05:22:22;;;;;;;46.27;14.93;;;-2.70;96.40;;;-5.05;75.25;100605.00;10419329;27;96570;-77
2022/03/08 05:27:25;;;;;;;49.83;17.47;;;-2.80;96.40;;;-5.08;75.71;100601.69;10420808;27;96440;-77
2022/03/08 05:32:28;;;;;;;55.13;19.17;;;-2.80;97.70;;;-5.11;75.96;100594.88;10418322;28;96514;-77
2022/03/08 05:37:31;;;;;;;50.97;20.03;;;-2.90;97.80;;;-5.14;76.05;100603.63;10419056;27;96505;-77
2022/03/08 05:42:34;;;;;;;46.37;17.03;;;-2.90;99.00;;;-5.14;76.24;100606.22;10441464;27;96586;-77
2022/03/08 05:47:39;;;;;;;50.20;18.40;;;-2.90;97.50;;;-5.08;76.54;100627.59;10409620;27;96595;-80
2022/03/08 05:52:42;;;;;;;55.33;20.07;;;-2.90;98.00;;;-5.05;76.85;100622.28;10426005;27;96612;-77
2022/03/08 05:57:45;;;;;;;51.57;20.80;;;-2.90;97.40;;;-5.04;76.79;100630.00;10419083;28;96469;-77
2022/03/08 06:02:48;;;;;;;54.47;20.03;;;-2.90;99.60;;;-5.01;76.77;100634.25;10431736;27;97587;-77
2022/03/08 06:07:51;;;;;;;95.70;34.27;;;-2.80;98.50;;;-4.97;77.15;100638.41;10412778;27;96668;-77
2022/03/08 06:12:55;;;;;;;69.93;27.73;;;-2.80;99.60;;;-4.88;77.18;100643.22;10408163;27;96577;-77
2022/03/08 06:17:58;;;;;;;66.60;26.37;;;-2.80;99.50;;;-4.79;77.45;100640.28;10401341;27;97479;-76
2022/03/08 06:23:01;;;;;;;50.83;22.10;;;-2.70;99.90;;;-4.65;77.76;100645.78;10418638;27;96328;-78
2022/03/08 06:28:04;;;;;;;51.10;18.80;;;-2.60;99.90;;;-4.51;78.02;100639.19;10415631;28;96971;-78
2022/03/08 06:33:07;;;;;;;38.40;17.70;;;-2.50;99.90;;;-4.34;77.64;100652.31;10427008;27;96616;-78
2022/03/08 06:38:10;;;;;;;65.33;24.73;;;-2.40;99.90;;;-4.20;77.15;100659.53;10431785;27;96410;-77
2022/03/08 06:43:13;;;;;;;42.37;16.67;;;-2.30;99.90;;;-4.06;76.71;100671.06;10443706;27;97099;-77
2022/03/08 06:48:17;;;;;;;45.43;17.97;;;-2.10;99.90;;;-3.92;76.19;100672.22;10418086;27;96418;-78
2022/03/08 06:53:20;;;;;;;36.70;14.57;;;-2.00;99.90;;;-3.86;76.01;100664.19;10421117;27;96513;-78
2022/03/08 06:58:23;;;;;;;35.37;14.80;;;-1.90;99.60;;;-3.78;75.90;100662.09;10439772;27;96616;-78
2022/03/08 07:03:26;;;;;;;38.67;17.63;;;-1.80;99.50;;;-3.64;75.57;100669.31;10457514;27;96952;-78
2022/03/08 07:08:29;;;;;;;41.63;16.77;;;-1.70;98.80;;;-3.38;75.40;100674.19;10438655;27;96473;-77
2022/03/08 07:13:32;;;;;;;35.70;15.70;;;-1.50;99.30;;;-3.05;75.19;100666.66;10404831;27;96622;-77
2022/03/08 07:18:35;;;;;;;37.63;16.77;;;-1.20;98.70;;;-2.73;74.32;100666.91;10417861;27;96671;-78
2022/03/08 07:23:39;;;;;;;43.03;17.23;;;-0.90;98.00;;;-2.38;73.68;100664.41;10415124;27;97366;-76
2022/03/08 07:28:42;;;;;;;36.70;15.57;;;-0.60;98.20;;;-1.99;72.65;100665.03;10402659;27;96757;-77
2022/03/08 07:33:45;;;;;;;36.53;17.47;;;-0.30;97.60;;;-1.63;71.77;100669.28;10439944;27;96496;-76
2022/03/08 07:38:48;;;;;;;36.63;17.77;;;0.10;96.60;;;-1.28;70.66;100661.41;10411367;28;98257;-77
2022/03/08 07:43:51;;;;;;;33.10;16.30;;;0.40;96.10;;;-0.91;69.40;100668.94;10405733;27;96633;-77
2022/03/08 07:48:54;;;;;;;41.97;20.50;;;0.80;95.30;;;-0.54;67.90;100669.53;10458054;27;96402;-77
2022/03/08 07:54:18;;;;;;;34.53;16.20;;;1.10;94.40;;;-0.10;67.58;100655.72;10391635;28;96406;-77
2022/03/08 07:59:22;;;;;;;36.53;19.73;;;1.50;94.40;;;0.39;65.97;100658.06;10420563;27;96870;-77
2022/03/08 08:04:25;;;;;;;30.13;16.27;;;1.90;93.40;;;1.85;64.77;100656.66;10426927;27;96567;-77
2022/03/08 08:09:28;;;;;;;21.50;12.37;;;2.50;93.50;;;3.25;58.61;100645.31;10421609;27;96633;-77
2022/03/08 08:14:31;;;;;;;35.27;13.67;;;3.30;93.60;;;4.15;55.79;100646.56;10392117;28;96420;-77
2022/03/08 08:19:33;;;;;;;18.03;11.33;;;4.10;91.50;;;4.61;52.38;100634.28;10444215;27;96519;-78
2022/03/08 08:24:37;;;;;;;17.43;11.00;;;4.90;90.20;;;5.32;49.46;100633.03;10449624;27;96569;-77
2022/03/08 08:29:40;;;;;;;18.67;10.67;;;5.60;86.60;;;6.33;49.24;100638.75;10438847;27;98072;-77
2022/03/08 08:34:43;;;;;;;19.00;8.60;;;6.30;81.20;;;6.79;44.89;100624.25;10462555;27;96411;-78
2022/03/08 08:39:46;;;;;;;18.70;9.53;;;7.00;79.40;;;7.39;43.93;100619.81;10448699;27;97180;-78
2022/03/08 08:44:48;;;;;;;18.77;10.27;;;7.60;77.20;;;8.06;42.11;100615.50;10434036;27;96472;-76
2022/03/08 08:49:51;;;;;;;13.30;7.37;;;8.30;73.70;;;8.94;40.68;100613.47;10401886;28;97014;-78
2022/03/08 08:54:55;;;;;;;16.97;9.17;;;8.90;70.20;;;9.14;39.71;100607.06;10385537;28;96618;-78
2022/03/08 08:59:57;;;;;;;12.40;8.20;;;9.20;65.90;;;9.08;39.53;100605.00;10417286;27;96503;-78
2022/03/08 09:05:01;;;;;;;14.07;8.43;;;9.40;63.60;;;9.21;38.92;100592.22;10416165;27;96466;-78
2022/03/08 09:10:06;;;;;;;17.00;9.10;;;9.70;60.00;;;9.53;38.45;100589.06;10422944;27;98579;-78
2022/03/08 09:15:10;;;;;;;18.50;9.87;;;9.90;60.00;;;10.15;37.24;100586.41;10402594;27;96553;-78
2022/03/08 09:20:13;;;;;;;13.53;8.13;;;10.40;58.60;;;10.27;35.57;100590.53;10437928;27;96544;-78
2022/03/08 09:25:22;;;;;;;13.40;8.53;;;10.60;56.10;;;10.61;36.26;100585.22;10436465;27;96545;-78
2022/03/08 09:30:26;;;;;;;9.30;5.90;;;10.90;55.70;;;10.86;32.93;100583.53;10463112;27;96823;-78
2022/03/08 09:35:30;;;;;;;7.83;5.20;;;11.30;52.20;;;11.13;31.94;100582.44;10424993;27;96534;-78
2022/03/08 09:40:33;;;;;;;14.33;7.13;;;11.60;52.00;;;11.32;32.97;100577.81;10435541;27;97948;-78
2022/03/08 09:45:36;;;;;;;9.18;5.57;;;12.00;51.10;;;11.41;31.47;100575.03;10407631;27;96703;-78
2022/03/08 09:50:39;;;;;;;10.05;5.60;;;12.30;49.60;;;11.80;31.30;100574.38;10459321;27;96569;-78
2022/03/08 09:55:42;;;;;;;8.82;5.00;;;12.60;49.30;;;12.13;30.28;100577.06;10417833;27;96457;-78
2022/03/08 10:00:45;;;;;;;8.32;5.30;;;12.90;48.40;;;12.47;29.71;100569.63;10424780;27;96456;-78
2022/03/08 10:05:48;;;;;;;8.23;4.80;;;13.20;47.40;;;12.62;28.91;100564.44;10430105;27;96640;-78
2022/03/08 10:10:58;;;;;;;10.98;6.32;;;13.50;46.20;;;12.50;28.77;100577.31;10438953;27;96516;-78
2022/03/08 10:16:28;;;;;;;8.27;5.10;;;13.50;45.00;;;11.73;29.65;100573.38;10413158;27;96884;-78
2022/03/08 10:21:54;;;;;;;8.77;4.93;;;13.10;44.10;;;11.44;29.68;100577.34;10445503;27;96571;-77
2022/03/08 10:27:06;;;;;;;10.80;4.90;;;13.00;42.60;;;11.61;29.77;100569.38;10412732;27;96521;-78
2022/03/08 10:32:19;;;;;;;7.03;4.60;;;13.00;43.90;;;12.00;29.24;100561.59;10438961;27;96489;-78
2022/03/08 10:37:24;;;;;;;6.90;4.53;;;13.20;44.00;;;12.79;27.64;100554.53;10421243;27;96492;-76
2022/03/08 10:42:32;;;;;;;5.60;3.90;;;13.80;43.10;;;13.25;26.76;100554.66;10397869;28;96513;-77
2022/03/08 10:47:50;;;;;;;7.20;5.05;;;14.20;42.80;;;13.84;26.31;100554.88;10422112;27;96619;-77
2022/03/08 10:52:56;;;;;;;7.22;4.00;;;14.60;41.40;;;14.33;24.48;100543.72;10398774;27;96488;-77
2022/03/08 10:58:07;;;;;;;9.30;4.97;;;15.20;40.30;;;14.28;24.74;100551.47;10413574;27;96477;-77
2022/03/08 11:03:15;;;;;;;;;;;15.40;40.60;;;14.09;24.56;100553.66;10436808;27;96753;-77
2022/03/08 11:08:20;;;;;;;4.47;3.45;;;15.30;36.30;;;13.46;24.66;100546.00;10432731;27;96815;-76
2022/03/08 11:13:23;;;;;;;10.48;5.13;;;14.90;38.60;;;12.40;25.26;100544.69;10452138;27;96520;-79
2022/03/08 11:18:27;;;;;;;17.52;12.85;;;14.10;37.40;;;11.17;26.73;100535.06;10450913;27;96617;-78
2022/03/08 11:23:35;;;;;;;8.20;5.10;;;13.10;38.50;;;11.33;28.13;100537.75;10412280;27;97027;-79
2022/03/08 11:28:46;;;;;;;6.57;4.53;;;12.90;40.00;;;12.53;27.44;100529.00;10412557;27;96607;-79
2022/03/08 11:34:01;;;;;;;6.70;4.03;;;13.60;40.70;;;13.22;25.87;100523.00;10427944;27;96588;-79
2022/03/08 11:39:27;;;;;;;5.47;3.60;;;14.30;38.90;;;13.10;25.04;100511.84;10403574;28;96519;-78
2022/03/08 11:44:33;;;;;;;7.53;4.50;;;14.50;36.60;;;13.31;24.87;100505.91;10458826;27;96605;-77
2022/03/08 11:49:43;;;;;;;4.82;3.38;;;14.70;37.80;;;12.96;25.08;100501.97;10444279;27;96541;-77
2022/03/08 11:55:08;;;;;;;7.30;3.60;;;14.50;37.80;;;12.33;25.07;100501.91;10438944;27;96601;-77
2022/03/08 12:00:22;;;;;;;5.32;3.38;;;14.00;35.80;;;12.30;25.66;100490.75;10417336;27;96473;-77
2022/03/08 12:05:47;;;;;;;5.55;3.53;;;13.80;37.70;;;11.99;26.07;100493.31;10439298;27;96612;-77
2022/03/08 12:11:00;;;;;;;5.05;3.60;;;13.50;37.30;;;11.98;26.31;100492.50;10443553;27;96481;-77
2022/03/08 12:16:24;;;;;;;5.57;3.95;;;13.30;37.70;;;11.82;25.69;100494.38;10443961;27;96801;-77
2022/03/08 12:21:32;;;;;;;4.93;3.40;;;13.10;37.70;;;11.51;25.97;100498.53;10449098;27;96821;-77
2022/03/08 12:26:55;;;;;;;6.57;3.20;;;12.90;37.80;;;11.61;26.09;100487.69;10402308;28;96566;-77
2022/03/08 12:32:27;;;;;;;5.65;3.88;;;13.00;37.60;;;11.79;25.71;100476.84;10420312;28;97905;-76
2022/03/08 12:37:37;;;;;;;5.93;3.70;;;13.00;38.00;;;11.75;25.43;100464.88;10401906;28;96546;-78
2022/03/08 12:42:45;;;;;;;7.47;4.05;;;12.90;37.30;;;11.13;25.68;100461.91;10419299;28;96532;-78
2022/03/08 12:48:00;;;;;;;6.57;3.70;;;12.60;36.90;;;10.65;26.26;100452.84;10450985;27;96623;-76
2022/03/08 12:53:15;;;;;;;5.75;3.60;;;12.30;37.30;;;10.21;26.63;100454.84;10452386;27;97587;-76
2022/03/08 12:58:22;;;;;;;7.47;3.53;;;11.90;37.40;;;9.81;27.59;100454.44;10418174;28;97621;-78
2022/03/08 13:03:28;;;;;;;6.17;3.80;;;11.50;38.00;;;9.64;28.08;100463.28;10408598;28;96563;-76
2022/03/08 13:08:34;;;;;;;5.83;3.33;;;11.20;38.40;;;9.57;28.12;100457.78;10399711;28;96710;-78
2022/03/08 13:13:40;;;;;;;11.23;6.40;;;11.10;38.90;;;9.33;27.90;100452.28;10429308;27;96762;-78
2022/03/08 13:18:43;;;;;;;7.87;3.53;;;10.80;38.40;;;9.29;28.14;100450.91;10417616;27;96684;-78
2022/03/08 13:23:48;;;;;;;6.87;3.90;;;10.70;38.70;;;9.31;28.25;100443.66;10399789;28;96508;-78
2022/03/08 13:28:52;;;;;;;6.30;3.57;;;10.70;38.70;;;9.19;27.85;100443.06;10379086;28;96521;-78
2022/03/08 13:33:56;;;;;;;4.73;2.90;;;10.70;38.30;;;8.93;27.79;100448.28;10375031;28;96474;-78
2022/03/08 13:38:59;;;;;;;7.50;3.63;;;10.50;38.40;;;8.70;28.54;100447.06;10378818;28;96557;-78
2022/03/08 13:44:07;;;;;;;6.93;3.27;;;10.30;38.80;;;8.41;28.76;100452.53;10380783;28;96478;-78
2022/03/08 13:49:18;;;;;;;6.57;3.77;;;10.10;39.00;;;8.17;29.43;100443.28;10384606;28;96479;-78
2022/03/08 13:54:21;;;;;;;8.50;3.93;;;9.90;39.40;;;8.10;29.83;100447.50;10389897;28;96526;-78
2022/03/08 13:59:31;;;;;;;4.67;3.40;;;9.80;39.70;;;8.25;30.22;100442.53;10413360;28;96498;-78
2022/03/08 14:04:36;;;;;;;8.87;3.80;;;9.80;40.00;;;8.32;29.76;100446.25;10398054;28;96530;-78
2022/03/08 14:09:39;;;;;;;6.77;3.60;;;9.90;39.70;;;8.31;29.45;100432.19;10397102;28;97858;-78
2022/03/08 14:14:42;;;;;;;7.30;3.70;;;9.90;39.70;;;8.21;30.01;100428.75;10416412;28;96532;-78
2022/03/08 14:19:47;;;;;;;8.57;5.10;;;9.80;40.00;;;7.99;30.04;100426.50;10406675;28;96561;-78
2022/03/08 14:25:03;;;;;;;8.93;5.97;;;9.70;40.00;;;7.89;30.68;100425.69;10397696;28;96586;-78
2022/03/08 14:30:08;;;;;;;8.17;4.50;;;9.50;40.40;;;7.91;30.93;100421.91;10413903;28;96414;-77
2022/03/08 14:35:14;;;;;;;9.63;5.30;;;9.50;40.70;;;7.96;30.07;100429.44;10410216;27;96470;-78
2022/03/08 14:40:45;;;;;;;12.53;7.20;;;9.50;40.20;;;8.09;30.36;100419.34;10442593;27;96583;-79
2022/03/08 14:45:48;;;;;;;14.73;6.30;;;9.60;40.70;;;8.20;30.20;100420.97;10434479;27;96639;-78
2022/03/08 14:51:11;;;;;;;8.10;4.43;;;9.70;40.50;;;8.22;30.68;100419.84;10420181;27;96580;-82
2022/03/08 14:56:14;;;;;;;6.80;3.33;;;9.80;40.70;;;8.29;30.15;100426.22;10428250;27;96895;-78
2022/03/08 15:01:17;;;;;;;5.37;3.67;;;9.80;40.40;;;8.18;29.55;100410.53;10403717;27;96528;-78
2022/03/08 15:06:20;;;;;;;5.73;3.20;;;9.70;39.80;;;7.96;29.66;100410.91;10440064;27;96566;-78
2022/03/08 15:11:24;;;;;;;4.80;2.90;;;9.60;39.80;;;7.68;29.83;100415.34;10427952;27;96583;-78
2022/03/08 15:16:27;;;;;;;6.03;3.60;;;9.40;40.00;;;7.40;30.23;100409.97;10402693;27;96589;-78
2022/03/08 15:21:30;;;;;;;7.40;4.33;;;9.20;40.20;;;7.18;31.12;100415.56;10444818;27;96452;-78
2022/03/08 15:26:35;;;;;;;6.17;3.90;;;9.00;40.70;;;7.06;31.52;100408.75;10419705;27;97518;-78
2022/03/08 15:31:39;;;;;;;7.30;3.50;;;8.80;41.10;;;7.05;31.75;100407.91;10425305;27;98522;-78
2022/03/08 15:36:42;;;;;;;7.00;3.80;;;8.80;41.30;;;6.97;31.47;100410.44;10444460;27;96408;-78
2022/03/08 15:41:45;;;;;;;14.77;7.30;;;8.70;41.10;;;6.95;31.60;100410.56;10434479;27;96586;-78
2022/03/08 15:46:48;;;;;;;10.20;5.73;;;8.70;41.50;;;6.91;32.22;100414.47;10447188;27;99001;-78
2022/03/08 15:51:52;;;;;;;17.00;8.00;;;8.70;41.70;;;6.82;32.29;100414.44;10419662;27;96517;-78
2022/03/08 15:56:56;;;;;;;9.67;5.53;;;8.60;41.70;;;6.65;32.91;100408.88;10435821;27;98090;-77
2022/03/08 16:01:59;;;;;;;7.10;4.20;;;8.50;42.10;;;6.46;33.31;100413.28;10432813;27;97473;-77
2022/03/08 16:07:03;;;;;;;11.23;5.40;;;8.30;42.40;;;6.23;33.85;100420.59;10414154;27;96973;-78
2022/03/08 16:12:06;;;;;;;9.03;4.80;;;8.10;42.50;;;5.99;34.15;100421.75;10441333;27;96627;-77
2022/03/08 16:17:09;;;;;;;70.67;26.17;;;7.90;43.00;;;5.74;34.84;100423.00;10408062;27;96676;-77
2022/03/08 16:22:15;;;;;;;45.10;16.03;;;7.70;43.50;;;5.48;35.49;100435.78;10449853;27;96829;-76
2022/03/08 16:27:18;;;;;;;101.33;31.77;;;7.50;43.80;;;5.23;36.16;100452.81;10425238;27;97509;-77
2022/03/08 16:32:21;;;;;;;72.27;24.87;;;7.20;44.40;;;4.98;36.84;100458.44;10432705;27;96940;-77
2022/03/08 16:37:24;;;;;;;86.27;29.67;;;7.00;44.60;;;4.70;37.45;100454.56;10436220;27;96515;-77
2022/03/08 16:42:27;;;;;;;123.30;40.43;;;6.80;45.10;;;4.40;38.24;100469.22;10441941;27;96666;-77
2022/03/08 16:47:30;;;;;;;197.30;61.07;;;6.50;45.50;;;4.07;38.46;100472.69;10399527;28;96881;-76
2022/03/08 16:52:40;;;;;;;168.67;61.20;;;6.20;46.00;;;3.77;39.28;100473.28;10411343;27;97772;-76
2022/03/08 16:57:44;;;;;;;66.43;26.53;;;6.00;46.30;;;3.53;39.63;100477.75;10441504;27;97759;-78
2022/03/08 17:02:47;;;;;;;30.30;13.33;;;5.70;46.10;;;3.35;40.15;100486.06;10440273;27;96896;-77
2022/03/08 17:07:50;;;;;;;23.10;8.83;;;5.50;46.40;;;3.23;40.43;100489.63;10415282;27;97357;-79
2022/03/08 17:13:18;;;;;;;20.00;7.73;;;5.30;47.00;;;3.14;40.57;100498.19;10419987;27;97981;-77
2022/03/08 17:18:21;;;;;;;12.93;7.40;;;5.10;47.40;;;3.03;40.84;100501.59;10431057;27;96859;-77
2022/03/08 17:23:24;;;;;;;15.23;8.00;;;5.00;47.40;;;2.96;40.66;100500.38;10440881;27;96606;-77
2022/03/08 17:28:27;;;;;;;16.57;8.03;;;4.90;47.70;;;2.95;40.58;100504.78;10422202;27;96868;-77
2022/03/08 17:33:31;;;;;;;30.30;12.23;;;4.80;47.80;;;2.94;40.64;100504.91;10422337;27;96531;-78
2022/03/08 17:38:34;;;;;;;18.10;9.23;;;4.80;47.70;;;2.86;41.00;100504.59;10411606;27;97559;-78
2022/03/08 17:43:37;;;;;;;16.87;7.70;;;4.70;48.50;;;2.74;41.34;100495.81;10428744;27;98949;-78
2022/03/08 17:48:45;;;;;;;14.00;5.77;;;4.60;48.50;;;2.61;41.36;100513.41;10418927;27;96562;-77
2022/03/08 17:53:53;;;;;;;14.17;6.73;;;4.50;48.70;;;2.46;42.16;100511.84;10444303;27;97513;-77
2022/03/08 17:59:02;;;;;;;15.73;7.20;;;4.40;49.00;;;2.30;42.30;100512.94;10439138;27;96601;-77
2022/03/08 18:04:05;;;;;;;27.73;12.17;;;4.30;49.70;;;2.14;43.20;100515.78;10418110;27;96787;-77
2022/03/08 18:09:08;;;;;;;44.20;16.90;;;4.20;50.10;;;1.97;43.57;100523.13;10391699;27;98091;-77
2022/03/08 18:14:12;;;;;;;32.93;13.83;;;4.00;50.60;;;1.83;44.37;100524.09;10409746;27;96549;-77
2022/03/08 18:19:16;;;;;;;45.17;19.97;;;3.90;50.60;;;1.70;44.69;100545.03;10434289;27;96684;-77
2022/03/08 18:24:19;;;;;;;76.67;31.40;;;3.70;51.30;;;1.54;45.62;100547.00;10444241;27;97317;-78
2022/03/08 18:29:22;;;;;;;55.73;23.53;;;3.60;51.60;;;1.38;46.31;100551.53;10442886;27;98208;-78
2022/03/08 18:34:29;;;;;;;31.43;12.70;;;3.40;52.60;;;1.27;46.49;100547.88;10428585;27;96658;-78
2022/03/08 18:39:33;;;;;;;18.20;8.07;;;3.30;52.20;;;1.25;46.47;100548.91;10452121;27;96514;-77
2022/03/08 18:44:36;;;;;;;13.57;6.13;;;3.30;52.10;;;1.27;46.06;100553.09;10406208;27;96748;-77
2022/03/08 18:49:39;;;;;;;12.57;6.00;;;3.20;52.90;;;1.31;46.14;100551.13;10414294;27;96740;-78
2022/03/08 18:54:42;;;;;;;83.07;29.90;;;3.30;52.50;;;1.27;47.24;100558.34;10422308;27;96662;-77
2022/03/08 18:59:45;;;;;;;64.27;29.77;;;3.20;52.50;;;1.16;47.60;100560.81;10425583;27;98825;-77
2022/03/08 19:04:48;;;;;;;55.10;23.93;;;3.20;52.80;;;1.04;48.02;100562.44;10426206;27;96917;-78
2022/03/08 19:09:51;;;;;;;54.63;23.80;;;3.10;54.10;;;0.91;48.63;100561.56;10427296;27;96720;-78
2022/03/08 19:14:55;;;;;;;79.70;29.93;;;2.90;54.80;;;0.77;48.83;100577.25;10397431;27;96734;-77
2022/03/08 19:19:58;;;;;;;68.33;28.93;;;2.80;54.30;;;0.63;49.86;100572.91;10457411;27;96633;-77
2022/03/08 19:25:02;;;;;;;73.90;26.40;;;2.70;55.20;;;0.50;50.26;100580.66;10412358;27;96709;-78
2022/03/08 19:30:06;;;;;;;79.83;30.17;;;2.60;56.40;;;0.44;51.00;100581.03;10411733;27;96535;-77
2022/03/08 19:35:09;;;;;;;58.70;25.30;;;2.50;57.50;;;0.42;51.34;100582.03;10402222;27;97314;-78
2022/03/08 19:40:13;;;;;;;70.27;29.33;;;2.40;57.70;;;0.40;51.68;100579.53;10420502;27;96448;-78
2022/03/08 19:45:15;;;;;;;63.23;23.03;;;2.40;58.30;;;0.39;51.80;100585.69;10408929;27;98597;-78
2022/03/08 19:50:18;;;;;;;68.57;20.67;;;2.30;57.50;;;0.35;51.30;100583.34;10431479;27;97762;-78
2022/03/08 19:55:22;;;;;;;35.57;14.80;;;2.30;57.60;;;0.26;51.87;100572.53;10408048;27;96795;-78
2022/03/08 20:00:26;;;;;;;60.70;23.87;;;2.30;57.60;;;0.18;51.57;100576.53;10413493;27;96476;-78
2022/03/08 20:05:28;;;;;;;89.80;29.97;;;2.20;57.60;;;0.05;51.94;100576.44;10449058;27;97426;-78
2022/03/08 20:10:31;;;;;;;81.13;31.17;;;2.10;58.20;;;-0.06;52.15;100584.94;10460223;27;96464;-78
2022/03/08 20:15:34;;;;;;;56.10;21.67;;;2.00;58.60;;;-0.15;52.26;100584.63;10415502;27;96875;-77
2022/03/08 20:20:37;;;;;;;33.10;14.23;;;1.90;58.50;;;-0.26;52.78;100593.06;10430493;27;96617;-77
2022/03/08 20:25:40;;;;;;;38.50;13.87;;;1.90;59.30;;;-0.37;53.29;100585.84;10455819;27;96529;-77
2022/03/08 20:30:44;;;;;;;34.43;13.53;;;1.70;59.30;;;-0.50;52.82;100586.66;10412595;27;97673;-77
2022/03/08 20:35:47;;;;;;;26.77;12.87;;;1.60;58.60;;;-0.68;54.03;100597.22;10429156;27;96529;-77
2022/03/08 20:40:50;;;;;;;25.50;11.13;;;1.50;60.20;;;-0.87;54.09;100597.41;10433031;27;98145;-77
2022/03/08 20:45:54;;;;;;;34.27;12.43;;;1.30;59.60;;;-0.99;55.53;100603.31;10419754;27;97781;-77
2022/03/08 20:50:59;;;;;;;32.53;14.13;;;1.20;61.80;;;-1.06;55.48;100620.22;10417021;27;96590;-78
2022/03/08 20:56:03;;;;;;;33.50;14.77;;;1.10;61.30;;;-1.14;56.51;100620.66;10400317;27;96564;-77